Time;durP1;ratioP1;P1;durP2;ratioP2;P2;SDS_P1;SDS_P2;PMS_P1;PMS_P2;Temp;Humidity;BMP_temperature;BMP_pressure;BME280_temperature;BME280_humidity;BME280_pressure;Samples;Min_cycle;Max_cycle;Signal;HPM_P1;HPM_P2
2021/09/11 00:00:02;;;;;;;;;5.00;4.75;;;;;21.10;64.46;101513.91;4910512;28;45237;-66
2021/09/11 00:02:27;;;;;;;;;6.50;5.25;;;;;21.09;64.44;101516.72;4914726;28;45581;-66
2021/09/11 00:04:53;;;;;;;;;4.50;4.25;;;;;21.07;64.07;101516.00;4913104;28;45470;-70
2021/09/11 00:07:20;;;;;;;;;4.00;4.00;;;;;21.06;64.53;101517.00;4905867;28;45433;-65
2021/09/11 00:09:45;;;;;;;;;4.50;4.50;;;;;21.04;64.22;101522.50;4911185;28;45345;-67
2021/09/11 00:12:11;;;;;;;;;3.00;3.00;;;;;21.00;64.13;101512.19;4915000;28;45558;-65
2021/09/11 00:14:37;;;;;;;;;4.25;4.00;;;;;20.96;64.42;101519.69;4912113;28;46020;-68
2021/09/11 00:17:03;;;;;;;;;3.25;2.50;;;;;20.94;64.68;101518.97;4911361;28;45348;-67
2021/09/11 00:19:29;;;;;;;;;3.50;3.50;;;;;20.92;64.03;101516.41;4913417;28;45460;-66
2021/09/11 00:21:55;;;;;;;;;6.00;5.25;;;;;20.90;63.88;101523.75;4915613;28;45454;-67
2021/09/11 00:24:20;;;;;;;;;13.00;10.75;;;;;20.87;64.05;101515.16;4914701;28;46205;-68
2021/09/11 00:26:46;;;;;;;;;8.00;5.00;;;;;20.85;64.09;101509.94;4911988;28;45237;-66
2021/09/11 00:29:11;;;;;;;;;3.00;3.00;;;;;20.82;64.25;101517.41;4910136;28;45474;-67
2021/09/11 00:31:37;;;;;;;;;6.50;4.75;;;;;20.73;64.42;101511.03;4911935;28;45692;-66
2021/09/11 00:34:02;;;;;;;;;2.00;2.00;;;;;20.79;64.45;101517.69;4913887;28;46118;-63
2021/09/11 00:36:29;;;;;;;;;5.50;3.50;;;;;20.78;64.12;101516.84;4910728;28;45356;-62
2021/09/11 00:38:54;;;;;;;;;3.25;2.75;;;;;20.76;64.19;101516.09;4902695;28;45551;-63
2021/09/11 00:41:20;;;;;;;;;4.75;4.75;;;;;20.77;64.45;101519.63;4910239;28;46888;-63
2021/09/11 00:43:50;;;;;;;;;7.50;4.50;;;;;20.75;64.25;101516.25;4913159;28;45518;-63
2021/09/11 00:46:16;;;;;;;;;4.00;4.00;;;;;20.73;64.16;101515.53;4911688;28;45331;-63
2021/09/11 00:48:42;;;;;;;;;4.00;2.00;;;;;20.69;64.30;101511.44;4912460;28;45394;-63
2021/09/11 00:51:10;;;;;;;;;3.00;3.00;;;;;20.69;64.06;101512.28;4909092;28;45315;-63
2021/09/11 00:53:36;;;;;;;;;5.75;4.00;;;;;20.68;64.04;101515.94;4910134;28;45645;-63
2021/09/11 00:56:02;;;;;;;;;4.25;4.25;;;;;20.66;64.25;101512.56;4913776;28;45239;-63
2021/09/11 00:58:28;;;;;;;;;6.00;4.00;;;;;20.64;64.21;101511.88;4913594;28;45232;-63
2021/09/11 01:00:54;;;;;;;;;4.00;3.00;;;;;20.63;64.20;101518.22;4909985;28;45161;-63
2021/09/11 01:03:20;;;;;;;;;3.25;3.25;;;;;20.60;63.91;101521.16;4910534;28;46184;-62
2021/09/11 01:05:47;;;;;;;;;5.50;3.50;;;;;20.57;63.89;101530.31;4912231;28;45259;-62
2021/09/11 01:08:13;;;;;;;;;4.00;4.00;;;;;20.55;64.37;101524.25;4913781;28;45462;-62
2021/09/11 01:10:40;;;;;;;;;6.00;3.25;;;;;20.56;64.14;101525.09;4912472;28;45707;-63
2021/09/11 01:13:10;;;;;;;;;3.00;3.00;;;;;20.55;64.16;101524.25;4908486;28;45474;-62
2021/09/11 01:15:39;;;;;;;;;5.00;3.25;;;;;20.52;64.08;101524.50;4910084;28;45407;-62
2021/09/11 01:18:09;;;;;;;;;4.00;3.25;;;;;20.52;64.27;101527.19;4914380;28;45267;-62
2021/09/11 01:20:36;;;;;;;;;4.00;4.00;;;;;20.52;64.25;101524.50;4912498;28;45450;-62
2021/09/11 01:23:02;;;;;;;;;6.25;3.75;;;;;20.51;64.07;101533.50;4910550;28;46624;-63
2021/09/11 01:25:28;;;;;;;;;3.00;3.00;;;;;20.46;64.04;101535.78;4909278;28;45347;-63
2021/09/11 01:27:53;;;;;;;;;3.75;3.75;;;;;20.43;64.23;101536.00;4912612;28;45314;-63
2021/09/11 01:30:21;;;;;;;;;3.25;3.25;;;;;20.43;64.43;101538.66;4912037;28;45526;-63
2021/09/11 01:32:48;;;;;;;;;5.50;3.00;;;;;20.43;64.30;101535.16;4913076;28;45547;-63
2021/09/11 01:35:14;;;;;;;;;3.50;3.50;;;;;20.43;64.45;101541.34;4908968;28;45394;-63
2021/09/11 01:37:40;;;;;;;;;1.00;1.00;;;;;20.42;64.33;101539.66;4913384;28;45450;-63
2021/09/11 01:40:07;;;;;;;;;3.00;3.00;;;;;20.38;63.89;101538.25;4913264;28;45554;-62
2021/09/11 01:42:32;;;;;;;;;3.00;3.00;;;;;20.35;63.93;101543.84;4913313;28;45362;-63
2021/09/11 01:45:00;;;;;;;;;4.75;4.00;;;;;20.30;64.14;101543.41;4909458;28;45354;-62
2021/09/11 01:47:26;;;;;;;;;3.00;3.00;;;;;20.27;64.41;101543.69;4908311;28;45312;-62
2021/09/11 01:49:53;;;;;;;;;5.00;4.00;;;;;20.27;64.28;101541.00;4910519;28;45416;-63
2021/09/11 01:52:21;;;;;;;;;5.00;3.00;;;;;20.23;64.06;101540.44;4913844;28;45260;-63
2021/09/11 01:54:47;;;;;;;;;3.75;3.00;;;;;20.20;63.69;101534.50;4906990;28;45401;-63
2021/09/11 01:57:13;;;;;;;;;3.00;3.00;;;;;20.19;63.54;101540.81;4911316;28;45315;-62
2021/09/11 01:59:40;;;;;;;;;4.00;3.00;;;;;20.16;63.81;101541.09;4910672;28;45363;-63
2021/09/11 02:02:07;;;;;;;;;2.75;2.75;;;;;20.16;63.67;101538.44;4913417;28;45459;-62
2021/09/11 02:04:33;;;;;;;;;2.75;2.75;;;;;20.12;63.38;101540.50;4911790;28;45452;-62
2021/09/11 02:07:01;;;;;;;;;3.75;3.00;;;;;20.11;63.39;101538.81;4911621;28;45603;-62
2021/09/11 02:09:28;;;;;;;;;1.75;1.75;;;;;20.08;63.75;101539.09;4910030;28;45416;-62
2021/09/11 02:11:53;;;;;;;;;3.25;3.00;;;;;20.08;63.41;101542.63;4911659;28;45699;-62
2021/09/11 02:14:19;;;;;;;;;3.50;3.00;;;;;20.08;63.14;101537.25;4909726;28;45301;-62
2021/09/11 02:16:45;;;;;;;;;4.50;3.00;;;;;20.09;63.43;101546.13;4909406;28;45345;-62
2021/09/11 02:19:10;;;;;;;;;4.00;3.25;;;;;20.08;63.13;101549.78;4910751;28;45256;-62
2021/09/11 02:21:36;;;;;;;;;4.00;4.00;;;;;20.06;63.14;101547.25;4911830;28;45317;-62
2021/09/11 02:24:01;;;;;;;;;4.25;2.00;;;;;20.04;63.33;101543.00;4910331;28;45311;-62
2021/09/11 02:26:27;;;;;;;;;3.25;3.00;;;;;20.02;62.88;101540.47;4908921;28;45454;-62
2021/09/11 02:28:53;;;;;;;;;3.00;3.00;;;;;20.02;63.06;101548.47;4911436;28;45189;-62
2021/09/11 02:31:18;;;;;;;;;6.25;3.25;;;;;20.00;63.35;101549.59;4912169;28;46175;-62
2021/09/11 02:33:45;;;;;;;;;2.50;2.50;;;;;19.97;63.27;101537.31;4911126;28;45559;-62
2021/09/11 02:36:10;;;;;;;;;4.00;2.25;;;;;19.95;63.00;101533.94;4910026;28;45500;-62
2021/09/11 02:38:36;;;;;;;;;2.75;2.00;;;;;19.95;63.06;101543.78;4907754;28;45588;-62
2021/09/11 02:41:02;;;;;;;;;3.00;2.00;;;;;19.93;63.02;101538.59;4912473;28;46196;-62
2021/09/11 02:43:28;;;;;;;;;2.75;2.00;;;;;19.91;63.42;101529.00;4909696;28;45511;-62
2021/09/11 02:45:53;;;;;;;;;3.75;2.50;;;;;19.91;62.85;101535.19;4910609;28;45238;-62
2021/09/11 02:48:19;;;;;;;;;3.50;2.00;;;;;19.88;62.95;101530.09;4908745;28;45320;-62
2021/09/11 02:50:44;;;;;;;;;4.50;3.00;;;;;19.86;63.36;101540.09;4908680;28;46506;-62
2021/09/11 02:53:10;;;;;;;;;3.00;3.00;;;;;19.84;63.17;101538.53;4913434;28;45448;-63
2021/09/11 02:55:36;;;;;;;;;3.50;2.50;;;;;19.83;63.31;101540.38;4911497;28;45301;-62
2021/09/11 02:58:01;;;;;;;;;3.75;2.00;;;;;19.83;63.16;101539.47;4913151;28;45253;-62
2021/09/11 03:00:26;;;;;;;;;3.00;3.00;;;;;19.78;63.14;101535.38;4909575;28;46191;-62
2021/09/11 03:02:52;;;;;;;;;4.75;3.00;;;;;19.73;63.43;101540.28;4913574;28;45396;-62
2021/09/11 03:05:17;;;;;;;;;3.00;3.00;;;;;19.71;63.26;101539.56;4910977;28;45246;-62
2021/09/11 03:07:43;;;;;;;;;4.25;3.50;;;;;19.71;63.60;101539.56;4913036;28;45642;-62
2021/09/11 03:10:09;;;;;;;;;4.00;3.00;;;;;19.71;63.36;101544.06;4915087;28;46361;-62
2021/09/11 03:12:34;;;;;;;;;4.00;3.00;;;;;19.71;63.74;101544.06;4911655;28;45463;-62
2021/09/11 03:15:00;;;;;;;;;3.25;2.50;;;;;19.71;63.06;101544.91;4912300;28;45501;-62
2021/09/11 03:17:26;;;;;;;;;3.00;2.00;;;;;19.68;63.08;101539.84;4912053;28;45394;-62
2021/09/11 03:19:51;;;;;;;;;2.00;2.00;;;;;19.65;63.11;101536.56;4916177;28;45438;-62
2021/09/11 03:22:17;;;;;;;;;3.00;3.00;;;;;19.63;63.36;101535.84;4913547;28;45370;-62
2021/09/11 03:24:42;;;;;;;;;2.00;2.00;;;;;19.61;63.56;101543.16;4913589;28;45776;-62
2021/09/11 03:27:08;;;;;;;;;2.00;2.00;;;;;19.59;63.69;101537.06;4910817;28;45491;-62
2021/09/11 03:29:33;;;;;;;;;3.50;3.00;;;;;19.60;63.09;101539.63;4911681;28;45489;-62
2021/09/11 03:31:58;;;;;;;;;3.00;2.00;;;;;19.58;63.53;101538.91;4915980;28;45380;-62
2021/09/11 03:34:24;;;;;;;;;3.25;3.00;;;;;19.56;63.76;101542.66;4915691;28;45419;-62
2021/09/11 03:36:49;;;;;;;;;2.50;2.25;;;;;19.52;63.74;101536.75;4913246;28;45414;-62
2021/09/11 03:39:15;;;;;;;;;3.25;3.00;;;;;19.49;63.65;101531.63;4913026;28;45992;-62
2021/09/11 03:41:40;;;;;;;;;3.75;3.75;;;;;19.48;63.62;101535.28;4910587;28;45408;-62
2021/09/11 03:44:06;;;;;;;;;2.00;2.00;;;;;19.44;63.45;101536.53;4911947;28;45258;-62
2021/09/11 03:46:32;;;;;;;;;3.00;2.50;;;;;19.39;63.45;101539.56;4915282;28;45313;-62
2021/09/11 03:48:58;;;;;;;;;2.00;2.00;;;;;19.34;64.00;101535.59;4914771;28;45167;-62
2021/09/11 03:51:23;;;;;;;;;3.00;3.00;;;;;19.34;63.68;101539.09;4913091;28;45185;-62
2021/09/11 03:53:49;;;;;;;;;3.00;3.00;;;;;19.32;64.35;101537.53;4894793;28;45341;-62
2021/09/11 03:56:15;;;;;;;;;3.50;2.00;;;;;19.32;63.85;101542.88;4911541;28;45564;-63
2021/09/11 03:58:41;;;;;;;;;3.75;3.00;;;;;19.29;64.31;101533.31;4915649;28;45345;-62
2021/09/11 04:01:06;;;;;;;;;2.00;2.00;;;;;19.32;64.06;101537.53;4915218;28;45234;-62
2021/09/11 04:03:32;;;;;;;;;2.00;2.00;;;;;19.32;64.14;101543.72;4912562;28;45512;-62
2021/09/11 04:05:58;;;;;;;;;2.75;1.00;;;;;19.29;64.02;101543.16;4910692;28;45528;-62
2021/09/11 04:08:24;;;;;;;;;2.50;2.50;;;;;19.28;63.70;101550.31;4896942;28;45419;-62
2021/09/11 04:10:51;;;;;;;;;2.00;2.00;;;;;19.25;63.59;101556.75;4910591;28;45313;-62
2021/09/11 04:13:17;;;;;;;;;2.25;2.25;;;;;19.24;64.05;101552.38;4912966;28;45268;-62
2021/09/11 04:15:42;;;;;;;;;2.25;2.25;;;;;19.20;64.21;101548.28;4910340;28;45265;-62
2021/09/11 04:18:08;;;;;;;;;2.00;2.00;;;;;19.18;64.17;101552.03;4910699;28;45291;-62
2021/09/11 04:20:35;;;;;;;;;2.00;2.00;;;;;19.19;63.80;101561.75;4915031;28;45211;-62
2021/09/11 04:23:01;;;;;;;;;1.00;1.00;;;;;19.17;63.76;101558.34;4914113;28;45454;-62
2021/09/11 04:25:26;;;;;;;;;2.00;2.00;;;;;19.17;64.24;101555.69;4912649;28;45440;-62
2021/09/11 04:27:52;;;;;;;;;2.25;1.00;;;;;19.14;64.12;101562.13;4912097;28;45416;-62
2021/09/11 04:30:17;;;;;;;;;3.50;2.50;;;;;19.13;64.20;101559.59;4907802;28;45446;-62
2021/09/11 04:32:43;;;;;;;;;2.00;2.00;;;;;19.11;64.14;101561.53;4914269;28;45475;-61
2021/09/11 04:35:09;;;;;;;;;2.00;2.00;;;;;19.08;63.76;101561.78;4915070;28;45422;-62
2021/09/11 04:37:34;;;;;;;;;1.00;1.00;;;;;19.09;63.89;101555.47;4912569;28;46223;-62
2021/09/11 04:40:00;;;;;;;;;1.50;1.00;;;;;19.08;64.04;101551.97;4909845;28;45479;-63
2021/09/11 04:42:25;;;;;;;;;2.00;2.00;;;;;19.07;63.62;101558.28;4911275;28;45323;-62
2021/09/11 04:44:51;;;;;;;;;2.25;1.50;;;;;19.07;63.69;101563.63;4914011;28;45306;-62
2021/09/11 04:47:16;;;;;;;;;3.00;2.00;;;;;19.05;63.95;101559.38;4912711;28;45303;-62
2021/09/11 04:49:42;;;;;;;;;3.00;3.00;;;;;19.02;63.75;101555.13;4910204;28;45311;-62
2021/09/11 04:52:07;;;;;;;;;1.75;1.75;;;;;19.00;63.99;101554.41;4911146;28;45304;-62
2021/09/11 04:54:33;;;;;;;;;2.25;2.25;;;;;18.96;64.21;101552.97;4915133;28;45278;-63
2021/09/11 04:56:58;;;;;;;;;3.00;2.50;;;;;18.91;63.96;101557.84;4914431;28;45298;-62
2021/09/11 04:59:25;;;;;;;;;2.00;2.00;;;;;18.87;64.53;101559.88;4913805;28;45361;-63
2021/09/11 05:01:51;;;;;;;;;1.00;1.00;;;;;18.86;64.05;101566.19;4909765;28;45216;-62
2021/09/11 05:04:17;;;;;;;;;1.00;1.00;;;;;18.86;64.47;101560.88;4908634;28;45578;-63
2021/09/11 05:06:43;;;;;;;;;3.00;1.25;;;;;18.86;64.50;101562.69;4913304;28;45423;-62
2021/09/11 05:09:08;;;;;;;;;1.00;1.00;;;;;18.87;64.29;101569.72;4913890;28;45477;-63
2021/09/11 05:11:34;;;;;;;;;1.00;1.00;;;;;18.90;64.52;101570.34;4911951;28;45241;-62
2021/09/11 05:13:59;;;;;;;;;4.00;2.75;;;;;18.93;63.97;101566.56;4907937;28;45484;-62
2021/09/11 05:16:25;;;;;;;;;2.50;2.00;;;;;18.95;64.04;101575.28;4913233;28;46130;-63
2021/09/11 05:18:50;;;;;;;;;5.00;2.00;;;;;18.98;64.51;101574.22;4916776;28;45312;-63
2021/09/11 05:21:16;;;;;;;;;3.75;2.25;;;;;19.01;64.53;101573.94;4913146;28;45268;-63
2021/09/11 05:23:41;;;;;;;;;8.50;7.00;;;;;19.02;63.98;101584.50;4911035;28;45311;-62
2021/09/11 05:26:07;;;;;;;;;3.50;2.00;;;;;19.02;64.02;101572.97;4911010;28;45423;-62
2021/09/11 05:28:33;;;;;;;;;2.75;2.75;;;;;19.00;64.36;101574.94;4908931;28;45632;-62
2021/09/11 05:30:59;;;;;;;;;3.75;2.50;;;;;18.99;64.47;101583.91;4914046;28;45336;-63
2021/09/11 05:33:24;;;;;;;;;3.25;3.00;;;;;18.97;63.98;101584.03;4912463;28;45176;-62
2021/09/11 05:35:50;;;;;;;;;4.00;4.00;;;;;18.97;64.39;101584.03;4911109;28;46163;-62
2021/09/11 05:38:15;;;;;;;;;3.00;3.00;;;;;18.95;64.10;101578.81;4906402;28;45276;-63
2021/09/11 05:40:41;;;;;;;;;4.00;3.00;;;;;18.91;64.15;101574.69;4913528;28;46862;-62
2021/09/11 05:43:07;;;;;;;;;2.75;2.25;;;;;18.90;64.46;101580.16;4913485;28;45435;-62
2021/09/11 05:45:32;;;;;;;;;3.50;2.00;;;;;18.90;64.66;101574.81;4911451;28;46410;-62
2021/09/11 05:47:58;;;;;;;;;2.00;2.00;;;;;18.88;64.53;101585.63;4907664;28;45560;-62
2021/09/11 05:50:23;;;;;;;;;3.00;2.00;;;;;18.89;64.53;101586.47;4910715;28;45411;-62
2021/09/11 05:52:49;;;;;;;;;2.50;1.25;;;;;18.91;64.36;101587.19;4913176;28;45480;-62
2021/09/11 05:55:15;;;;;;;;;2.00;1.25;;;;;18.93;64.58;101587.91;4912732;28;45800;-62
2021/09/11 05:57:41;;;;;;;;;3.00;2.75;;;;;18.93;63.97;101593.25;4910701;28;45505;-62
2021/09/11 06:00:07;;;;;;;;;2.50;2.00;;;;;18.93;64.23;101601.25;4910882;28;45375;-62
2021/09/11 06:02:33;;;;;;;;;2.00;2.00;;;;;18.95;64.22;101604.66;4909533;28;45281;-62
2021/09/11 06:04:58;;;;;;;;;4.25;2.25;;;;;19.00;64.38;101610.47;4913539;28;45226;-63
2021/09/11 06:07:26;;;;;;;;;1.00;1.00;;;;;19.11;63.75;101625.63;4907582;28;45307;-63
2021/09/11 06:09:52;;;;;;;;;3.75;3.50;;;;;19.23;63.57;101624.63;4904618;29;45345;-62
2021/09/11 06:12:20;;;;;;;;;2.00;2.00;;;;;19.30;63.49;101628.50;4887924;29;45567;-62
2021/09/11 06:14:46;;;;;;;;;2.00;2.00;;;;;19.37;63.13;101629.72;4885433;29;45568;-62
2021/09/11 06:17:12;;;;;;;;;1.00;1.00;;;;;19.40;63.22;101626.78;4885135;29;45478;-62
2021/09/11 06:19:37;;;;;;;;;2.00;2.00;;;;;19.44;62.90;101632.72;4885556;29;45381;-62
2021/09/11 06:22:04;;;;;;;;;3.25;2.00;;;;;19.47;63.25;101630.63;4885143;29;45443;-62
2021/09/11 06:24:29;;;;;;;;;1.25;1.25;;;;;19.51;62.59;101628.53;4884290;29;45624;-62
2021/09/11 06:26:55;;;;;;;;;5.75;3.25;;;;;19.51;62.28;101628.53;4884439;29;45567;-62
2021/09/11 06:29:21;;;;;;;;;20.00;16.50;;;;;19.50;63.02;101632.19;4884766;29;45447;-62
2021/09/11 06:31:47;;;;;;;;;8.25;8.25;;;;;19.49;62.38;101634.03;4884774;29;45300;-62
2021/09/11 06:34:13;;;;;;;;;2.00;1.75;;;;;19.46;62.33;101630.78;4884804;29;45462;-62
2021/09/11 06:36:38;;;;;;;;;5.00;2.25;;;;;19.42;62.51;101624.81;4884570;29;45346;-62
2021/09/11 06:39:04;;;;;;;;;4.00;2.00;;;;;19.44;62.54;101630.91;4884665;29;45349;-63
2021/09/11 06:41:29;;;;;;;;;2.00;2.00;;;;;19.48;62.82;101623.47;4887656;29;45556;-61
2021/09/11 06:43:55;;;;;;;;;6.00;2.00;;;;;19.46;62.64;101633.44;4898070;29;45756;-62
2021/09/11 06:46:21;;;;;;;;;2.75;2.00;;;;;19.47;62.37;101640.47;4891196;29;45342;-62
2021/09/11 06:48:46;;;;;;;;;2.75;2.00;;;;;19.49;62.88;101639.38;4888687;29;45370;-63
2021/09/11 06:51:12;;;;;;;;;1.25;1.00;;;;;19.53;62.27;101639.97;4888229;29;45741;-65
2021/09/11 06:53:37;;;;;;;;;2.00;1.75;;;;;19.55;62.50;101638.03;4888351;29;46165;-66
2021/09/11 06:56:03;;;;;;;;;2.00;2.00;;;;;19.57;62.89;101641.44;4886763;29;45539;-64
2021/09/11 06:58:28;;;;;;;;;1.75;1.75;;;;;19.63;62.25;101637.41;4898266;28;45469;-64
2021/09/11 07:00:54;;;;;;;;;17.00;13.50;;;;;19.67;62.35;101642.41;4894587;29;45664;-64
2021/09/11 07:03:20;;;;;;;;;3.25;2.00;;;;;19.69;62.25;101640.44;4899056;29;45215;-64
2021/09/11 07:05:45;;;;;;;;;1.75;1.75;;;;;19.64;62.23;101637.28;4905019;29;45289;-64
2021/09/11 07:08:11;;;;;;;;;2.00;1.25;;;;;19.62;61.91;101646.41;4890042;29;45437;-64
2021/09/11 07:10:36;;;;;;;;;2.00;0.75;;;;;19.58;61.92;101644.97;4906110;29;45218;-64
2021/09/11 07:13:02;;;;;;;;;1.25;1.25;;;;;19.57;62.13;101649.47;4906380;29;45837;-65
2021/09/11 07:15:27;;;;;;;;;1.75;1.75;;;;;19.56;62.24;101655.75;4906376;29;45238;-64
2021/09/11 07:17:53;;;;;;;;;1.25;1.00;;;;;19.52;61.71;101665.88;4902131;29;45357;-64
2021/09/11 07:20:18;;;;;;;;;2.00;1.00;;;;;19.52;62.46;101667.69;4902003;29;45383;-64
2021/09/11 07:22:44;;;;;;;;;2.25;2.25;;;;;19.56;62.16;101670.94;4902224;29;46199;-64
2021/09/11 07:25:10;;;;;;;;;2.50;2.00;;;;;19.58;62.10;101661.00;4906148;29;45349;-64
2021/09/11 07:27:36;;;;;;;;;1.00;1.00;;;;;19.58;62.08;101659.16;4893271;29;45335;-64
2021/09/11 07:30:02;;;;;;;;;1.50;1.00;;;;;19.61;61.71;101666.09;4906264;29;45317;-64
2021/09/11 07:32:28;;;;;;;;;2.00;1.25;;;;;19.60;61.64;101659.91;4891332;29;46098;-64
2021/09/11 07:34:54;;;;;;;;;3.00;2.00;;;;;19.62;62.09;101662.47;4906486;29;45470;-64
2021/09/11 07:37:20;;;;;;;;;3.75;2.00;;;;;19.64;62.07;101668.50;4902060;29;45234;-64
2021/09/11 07:39:47;;;;;;;;;2.00;0.75;;;;;19.65;61.89;101663.03;4902236;29;45384;-64
2021/09/11 07:42:13;;;;;;;;;3.00;1.00;;;;;19.66;62.02;101659.38;4901844;29;46192;-63
2021/09/11 07:44:38;;;;;;;;;3.50;1.75;;;;;19.68;61.84;101660.13;4906423;29;45404;-64
2021/09/11 07:47:04;;;;;;;;;13.25;11.00;;;;;19.73;61.35;101663.25;4897925;29;45336;-64
2021/09/11 07:49:29;;;;;;;;;2.00;2.00;;;;;19.76;61.48;101665.69;4906622;29;45390;-64
2021/09/11 07:51:55;;;;;;;;;1.50;1.50;;;;;19.80;61.52;101666.25;4900848;29;46040;-64
2021/09/11 07:54:20;;;;;;;;;1.00;1.00;;;;;19.81;60.71;101665.28;4901889;29;45495;-64
2021/09/11 07:56:46;;;;;;;;;1.00;1.00;;;;;19.83;60.57;101674.06;4889213;29;45321;-64
2021/09/11 07:59:11;;;;;;;;;4.00;3.00;;;;;19.83;61.21;101675.84;4905554;29;45331;-73
2021/09/11 08:01:37;;;;;;;;;2.25;1.75;;;;;19.86;61.42;101673.78;4898407;29;45339;-59
2021/09/11 08:04:02;;;;;;;;;5.00;1.00;;;;;19.90;61.31;101672.53;4902583;29;45393;-62
2021/09/11 08:06:28;;;;;;;;;1.00;1.00;;;;;19.94;61.31;101675.81;4900731;29;45286;-60
2021/09/11 08:08:53;;;;;;;;;1.00;0.50;;;;;19.99;61.00;101678.97;4904651;29;45410;-62
2021/09/11 08:11:19;;;;;;;;;1.50;1.25;;;;;20.00;60.83;101677.97;4887058;29;45250;-60
2021/09/11 08:13:44;;;;;;;;;1.75;1.00;;;;;20.01;60.76;101679.69;4902166;29;45441;-63
2021/09/11 08:16:10;;;;;;;;;4.00;1.00;;;;;20.03;60.28;101685.72;4896577;29;45316;-66
2021/09/11 08:18:36;;;;;;;;;0.25;0.25;;;;;20.04;59.73;101684.75;4896190;29;45705;-62
2021/09/11 08:21:01;;;;;;;;;3.75;2.00;;;;;20.04;61.68;101690.09;4898939;29;45171;-69
2021/09/11 08:23:27;;;;;;;;;3.25;2.00;;;;;20.17;60.85;101687.25;4902086;29;45437;-70
2021/09/11 08:25:52;;;;;;;;;0.75;0.00;;;;;20.26;60.12;101697.16;4897041;29;45323;-72
2021/09/11 08:28:18;;;;;;;;;4.00;2.00;;;;;20.31;60.49;101698.47;4879027;29;45434;-70
2021/09/11 08:30:44;;;;;;;;;1.00;1.00;;;;;20.39;59.47;101702.34;4898839;29;45929;-70
2021/09/11 08:33:11;;;;;;;;;11.75;9.00;;;;;20.42;59.44;101707.41;4897822;29;45328;-71
2021/09/11 08:35:37;;;;;;;;;2.50;1.00;;;;;20.47;59.37;101706.09;4897128;29;45319;-70
2021/09/11 08:38:02;;;;;;;;;1.00;1.00;;;;;20.53;60.04;101710.88;4895914;29;45455;-69
2021/09/11 08:40:28;;;;;;;;;1.75;1.25;;;;;20.63;58.98;101708.28;4898373;29;45275;-69
2021/09/11 08:42:53;;;;;;;;;0.25;0.25;;;;;20.73;58.23;101711.88;4901795;29;45233;-69
2021/09/11 08:45:19;;;;;;;;;1.50;1.50;;;;;20.82;60.03;101711.06;4897275;29;45214;-68
2021/09/11 08:47:46;;;;;;;;;3.25;1.00;;;;;20.89;58.31;101704.19;4910856;28;45382;-69
2021/09/11 08:50:17;;;;;;;;;0.50;0.50;;;;;20.98;57.63;101707.03;4912330;28;47358;-69
2021/09/11 08:52:45;;;;;;;;;3.00;1.00;;;;;21.03;57.24;101702.13;4913185;28;45432;-69
2021/09/11 08:55:11;;;;;;;;;1.00;1.00;;;;;21.06;57.50;101708.06;4914527;28;45255;-69
2021/09/11 08:57:37;;;;;;;;;2.00;2.00;;;;;21.12;57.32;101706.69;4911921;28;45237;-70
2021/09/11 09:00:06;;;;;;;;;1.00;1.00;;;;;21.17;56.86;101710.66;4912110;28;45459;-72
2021/09/11 09:02:32;;;;;;;;;1.25;1.25;;;;;21.23;57.66;101703.03;4908733;28;45344;-71
2021/09/11 09:05:00;;;;;;;;;3.00;1.25;;;;;21.26;56.10;101697.41;4909645;28;45419;-71
2021/09/11 09:07:39;;;;;;;;;2.50;1.00;;;;;21.34;57.29;101695.78;4910923;28;45436;-71
2021/09/11 09:10:09;;;;;;;;;2.00;2.00;;;;;21.44;56.23;101695.78;4912459;28;46290;-71
2021/09/11 09:12:38;;;;;;;;;1.00;1.00;;;;;21.53;56.29;101696.78;4912316;28;45405;-70
2021/09/11 09:15:04;;;;;;;;;1.00;1.00;;;;;21.57;55.82;101701.75;4913312;28;45454;-69
2021/09/11 09:17:49;;;;;;;;;3.00;2.00;;;;;21.64;55.18;101710.91;4909644;28;45476;-71
2021/09/11 09:20:28;;;;;;;;;1.00;1.00;;;;;21.67;55.46;101710.66;4910372;28;45424;-72
2021/09/11 09:22:59;;;;;;;;;1.25;1.25;;;;;21.67;54.60;101709.81;4910218;28;45300;-71
2021/09/11 09:25:30;;;;;;;;;3.25;1.00;;;;;21.69;54.68;101711.34;4907406;28;45463;-72
2021/09/11 09:28:01;;;;;;;;;0.00;0.00;;;;;21.70;54.91;101710.34;4903121;28;45474;-69
2021/09/11 09:30:48;;;;;;;;;3.00;2.00;;;;;21.77;56.11;101702.59;4906975;28;46324;-69
2021/09/11 09:33:19;;;;;;;;;3.75;2.75;;;;;21.82;56.91;101703.03;4906702;28;45186;-74
2021/09/11 09:35:46;;;;;;;;;5.75;5.75;;;;;21.87;55.82;101707.97;4913855;28;45472;-71
2021/09/11 09:38:12;;;;;;;;;9.25;7.00;;;;;21.89;55.31;101703.34;4909116;28;45511;-70
2021/09/11 09:40:49;;;;;;;;;2.00;2.00;;;;;21.94;54.44;101701.91;4907031;28;45483;-68
2021/09/11 09:43:34;;;;;;;;;1.00;1.00;;;;;21.97;54.62;101698.09;4905556;28;45209;-72
2021/09/11 09:46:07;;;;;;;;;2.00;2.00;;;;;22.05;53.88;101698.25;4911512;28;45177;-71
2021/09/11 09:48:35;;;;;;;;;1.75;1.50;;;;;22.10;53.58;101695.16;4908457;28;45344;-70
2021/09/11 09:51:09;;;;;;;;;2.25;2.25;;;;;22.15;54.23;101690.22;4909117;28;45269;-74
2021/09/11 09:53:37;;;;;;;;;2.50;2.50;;;;;22.18;54.35;101692.59;4905548;28;45457;-69
2021/09/11 09:56:03;;;;;;;;;1.00;1.00;;;;;22.24;54.18;101687.50;4911187;28;46403;-68
2021/09/11 09:58:32;;;;;;;;;2.00;2.00;;;;;22.30;53.22;101683.41;4911256;28;45430;-67
2021/09/11 10:00:58;;;;;;;;;5.75;4.50;;;;;22.37;53.73;101681.00;4911630;28;46575;-70
2021/09/11 10:03:24;;;;;;;;;3.00;2.00;;;;;22.46;55.34;101680.97;4912555;28;45241;-70
2021/09/11 10:05:55;;;;;;;;;5.00;2.00;;;;;22.47;53.82;101681.81;4913864;28;45310;-67
2021/09/11 10:08:21;;;;;;;;;3.25;1.00;;;;;22.45;54.23;101681.13;4911119;28;45532;-66
2021/09/11 10:10:48;;;;;;;;;2.75;1.50;;;;;22.49;52.90;101683.34;4917551;28;45516;-69
2021/09/11 10:13:21;;;;;;;;;3.25;2.00;;;;;22.43;54.59;101680.41;4909842;28;45279;-67
2021/09/11 10:16:04;;;;;;;;;5.75;3.00;;;;;22.44;53.64;101687.50;4908676;28;45487;-67
2021/09/11 10:18:29;;;;;;;;;15.75;8.75;;;;;22.44;53.33;101692.84;4912119;28;45491;-71
2021/09/11 10:21:17;;;;;;;;;5.50;4.00;;;;;22.43;53.02;101688.44;4912674;28;45471;-65
2021/09/11 10:23:56;;;;;;;;;13.50;12.25;;;;;22.48;54.74;101678.13;4911219;28;45362;-64
2021/09/11 10:26:46;;;;;;;;;11.50;7.75;;;;;22.58;53.20;101678.94;4909382;28;45431;-63
2021/09/11 10:29:33;;;;;;;;;8.75;6.75;;;;;22.65;52.51;101681.91;4914618;28;45567;-65
2021/09/11 10:32:11;;;;;;;;;3.25;3.00;;;;;22.63;52.34;101679.38;4911353;28;46107;-65
2021/09/11 10:35:00;;;;;;;;;3.50;2.75;;;;;22.68;52.69;101681.63;4907282;28;45248;-64
2021/09/11 10:37:37;;;;;;;;;3.50;3.50;;;;;22.72;53.02;101685.69;4908089;28;45421;-66
2021/09/11 10:40:22;;;;;;;;;11.75;11.50;;;;;22.78;51.44;101675.22;4911739;28;45305;-66
2021/09/11 10:43:08;;;;;;;;;10.75;6.50;;;;;22.88;52.69;101675.19;4909070;28;45430;-64
2021/09/11 10:46:09;;;;;;;;;46.75;38.50;;;;;22.96;50.92;101677.16;4908408;28;45245;-64
2021/09/11 10:48:42;;;;;;;;;3.00;3.00;;;;;22.92;51.56;101676.59;4893205;28;45539;-66
2021/09/11 10:51:28;;;;;;;;;3.00;2.50;;;;;22.91;52.84;101674.91;4912489;28;46563;-66
2021/09/11 10:54:22;;;;;;;;;1.25;0.50;;;;;22.87;51.35;101675.34;4905474;28;45599;-66
2021/09/11 10:56:47;;;;;;;;;1.75;1.00;;;;;22.81;52.07;101668.69;4891378;28;45402;-65
2021/09/11 10:59:16;;;;;;;;;3.25;2.00;;;;;22.77;51.52;101670.84;4910562;28;45462;-65
2021/09/11 11:02:08;;;;;;;;;1.00;1.00;;;;;22.75;51.37;101671.94;4910164;28;45477;-66
2021/09/11 11:04:47;;;;;;;;;0.50;0.50;;;;;22.82;51.80;101678.44;4900552;29;46217;-63
2021/09/11 11:07:15;;;;;;;;;4.25;2.25;;;;;22.88;51.75;101674.34;4904569;29;46098;-61
2021/09/11 11:10:06;;;;;;;;;2.25;1.50;;;;;22.85;51.42;101678.19;4903218;29;45329;-61
2021/09/11 11:12:35;;;;;;;;;1.50;1.50;;;;;22.81;51.43;101676.75;4901428;29;45581;-64
2021/09/11 11:15:02;;;;;;;;;4.25;1.75;;;;;22.81;51.38;101680.28;4903112;29;45421;-64
2021/09/11 11:17:29;;;;;;;;;2.00;2.00;;;;;22.80;52.23;101672.38;4902939;29;45376;-62
2021/09/11 11:19:56;;;;;;;;;3.75;2.75;;;;;22.81;52.67;101666.00;4902685;29;45452;-65
2021/09/11 11:22:33;;;;;;;;;2.50;2.00;;;;;22.94;51.94;101669.25;4902240;29;45389;-70
2021/09/11 11:24:58;;;;;;;;;1.75;1.75;;;;;22.98;52.22;101675.16;4902942;29;45352;-68